createdAt,value
2023-05-06T00:01:50.740Z,12.74
2023-05-06T00:04:57.099Z,12.60
2023-05-06T00:08:12.579Z,12.80
2023-05-06T00:12:19.048Z,12.55
2023-05-06T00:15:32.114Z,12.69
2023-05-06T00:18:42.664Z,12.60
2023-05-06T00:22:12.655Z,12.07
2023-05-06T00:25:43.285Z,12.50
2023-05-06T00:28:49.299Z,12.34
2023-05-06T00:36:17.072Z,12.33
2023-05-06T00:42:50.583Z,12.44
2023-05-06T00:46:02.144Z,12.17
2023-05-06T00:49:14.111Z,12.45
2023-05-06T00:52:32.263Z,12.18
2023-05-06T00:56:07.346Z,12.29
2023-05-06T00:59:10.510Z,12.16
2023-05-06T01:02:33.243Z,12.14
2023-05-06T01:06:29.170Z,12.18
2023-05-06T01:09:54.375Z,12.10
2023-05-06T01:13:58.686Z,12.09
2023-05-06T01:17:20.096Z,12.21
2023-05-06T01:25:15.956Z,12.13
2023-05-06T01:33:50.774Z,12.16
2023-05-06T01:37:17.650Z,12.24
2023-05-06T01:40:32.487Z,12.15
2023-05-06T01:45:02.400Z,12.38
2023-05-06T01:57:19.188Z,12.18
2023-05-06T02:03:43.464Z,12.08
2023-05-06T02:06:49.558Z,12.13
2023-05-06T02:10:34.595Z,12.32
2023-05-06T02:14:16.037Z,12.17
2023-05-06T02:17:19.451Z,11.96
2023-05-06T02:21:08.996Z,12.25
2023-05-06T02:24:27.083Z,12.04
2023-05-06T02:28:14.739Z,11.85
2023-05-06T02:31:48.121Z,11.68
2023-05-06T02:35:42.089Z,11.72
2023-05-06T02:38:51.308Z,11.87
2023-05-06T02:42:28.682Z,11.89
2023-05-06T02:45:31.872Z,12.04
2023-05-06T02:49:19.683Z,11.78
2023-05-06T02:52:22.916Z,11.96
2023-05-06T02:55:26.111Z,11.99
2023-05-06T02:58:35.280Z,12.09
2023-05-06T03:01:56.826Z,12.10
2023-05-06T03:05:16.111Z,12.13
2023-05-06T03:08:25.431Z,11.98
2023-05-06T03:11:47.228Z,11.99
2023-05-06T03:15:03.017Z,12.28
2023-05-06T03:18:33.908Z,12.06
2023-05-06T03:22:07.974Z,12.05
2023-05-06T03:25:29.469Z,12.06
2023-05-06T03:28:36.744Z,12.09
2023-05-06T03:38:18.827Z,11.94
2023-05-06T03:45:55.513Z,12.40
2023-05-06T03:49:12.748Z,12.16
2023-05-06T03:52:56.388Z,12.35
2023-05-06T03:56:13.323Z,12.05
2023-05-06T03:59:31.957Z,12.23
2023-05-06T04:06:57.429Z,11.93
2023-05-06T04:10:29.964Z,12.16
2023-05-06T04:14:01.665Z,12.17
2023-05-06T04:17:20.387Z,12.11
2023-05-06T04:21:08.472Z,12.14
2023-05-06T04:24:21.389Z,12.12
2023-05-06T04:27:39.634Z,12.02
2023-05-06T04:30:48.186Z,12.09
2023-05-06T04:34:04.392Z,12.20
2023-05-06T04:37:11.523Z,12.33
2023-05-06T04:40:53.600Z,12.34
2023-05-06T04:44:34.910Z,12.25
2023-05-06T04:51:43.176Z,12.52
2023-05-06T04:54:49.544Z,12.42
2023-05-06T04:57:53.095Z,12.50
2023-05-06T05:04:56.540Z,12.54
2023-05-06T05:08:08.384Z,12.53
2023-05-06T05:11:16.476Z,12.58
2023-05-06T05:14:25.465Z,12.73
2023-05-06T05:17:36.320Z,12.54
2023-05-06T05:20:45.945Z,12.61
2023-05-06T05:23:56.607Z,12.64
2023-05-06T05:28:08.146Z,12.71
2023-05-06T05:32:14.051Z,12.62
2023-05-06T05:35:44.594Z,12.80
2023-05-06T05:39:18.464Z,12.91
2023-05-06T05:43:02.974Z,12.77
2023-05-06T05:52:18.492Z,12.89
2023-05-06T05:55:22.438Z,13.00
2023-05-06T05:58:27.021Z,13.09
2023-05-06T06:01:33.238Z,13.57
2023-05-06T06:04:36.660Z,13.74
2023-05-06T06:07:41.928Z,14.17
2023-05-06T06:10:46.038Z,13.85
2023-05-06T06:13:54.525Z,13.80
2023-05-06T06:16:58.446Z,13.76
2023-05-06T06:20:01.958Z,13.50
2023-05-06T06:23:06.881Z,13.58
2023-05-06T06:26:12.192Z,13.49
2023-05-06T06:29:15.678Z,13.43
2023-05-06T06:32:19.557Z,13.52
2023-05-06T06:35:23.468Z,13.40
2023-05-06T06:38:28.661Z,13.39
2023-05-06T06:41:31.735Z,14.01
2023-05-06T06:44:35.392Z,14.44
2023-05-06T06:47:38.618Z,14.17
2023-05-06T06:50:41.939Z,14.06
2023-05-06T06:53:48.268Z,14.58
2023-05-06T06:56:54.979Z,14.83
2023-05-06T06:59:58.175Z,14.38
2023-05-06T07:03:01.506Z,13.94
2023-05-06T07:06:05.028Z,14.36
2023-05-06T07:09:09.744Z,14.15
2023-05-06T07:12:12.961Z,14.34
2023-05-06T07:15:16.082Z,14.18
2023-05-06T07:18:20.034Z,13.95
2023-05-06T07:21:23.204Z,14.28
2023-05-06T07:24:27.817Z,14.27
2023-05-06T07:27:31.561Z,14.82
2023-05-06T07:30:34.786Z,15.05
2023-05-06T07:33:38.139Z,14.65
2023-05-06T07:36:43.270Z,14.64
2023-05-06T07:39:47.997Z,14.88
2023-05-06T07:42:51.245Z,15.06
2023-05-06T07:46:02.105Z,15.35
2023-05-06T07:49:05.314Z,15.74
2023-05-06T07:52:08.523Z,14.97
2023-05-06T07:55:13.629Z,14.95
2023-05-06T07:58:16.963Z,15.01
2023-05-06T08:01:20.054Z,15.51
2023-05-06T08:04:23.406Z,15.56
2023-05-06T08:07:26.575Z,15.57
2023-05-06T08:10:31.162Z,15.03
2023-05-06T08:13:34.417Z,15.27
2023-05-06T08:16:37.628Z,16.04
2023-05-06T08:19:40.827Z,16.33
2023-05-06T08:22:43.940Z,15.93
2023-05-06T08:25:48.538Z,16.17
2023-05-06T08:28:51.688Z,16.84
2023-05-06T08:31:54.803Z,16.15
2023-05-06T08:34:59.704Z,15.95
2023-05-06T08:38:02.928Z,15.60
2023-05-06T08:41:10.323Z,16.28
2023-05-06T08:44:16.710Z,16.39
2023-05-06T08:47:20.801Z,15.93
2023-05-06T08:50:25.922Z,15.68
2023-05-06T08:53:30.505Z,15.86
2023-05-06T08:56:37.115Z,16.06
2023-05-06T08:59:42.367Z,16.59
2023-05-06T09:02:45.800Z,17.08
2023-05-06T09:05:48.933Z,16.77
2023-05-06T09:08:52.512Z,16.76
2023-05-06T09:11:57.629Z,17.06
2023-05-06T09:15:01.180Z,17.18
2023-05-06T09:18:05.602Z,16.35
2023-05-06T09:21:08.751Z,16.52
2023-05-06T09:24:13.839Z,16.56
2023-05-06T09:27:19.337Z,16.74
2023-05-06T09:30:23.066Z,16.70
2023-05-06T09:34:46.617Z,16.20
2023-05-06T09:37:49.785Z,16.42
2023-05-06T09:40:53.377Z,16.56
2023-05-06T09:43:57.867Z,16.75
2023-05-06T09:47:01.258Z,17.51
2023-05-06T09:50:14.855Z,17.22
2023-05-06T09:53:19.971Z,17.49
2023-05-06T09:56:24.626Z,17.01
2023-05-06T09:59:29.874Z,16.63
2023-05-06T10:02:37.604Z,16.90
2023-05-06T10:05:43.076Z,16.95
2023-05-06T10:08:46.950Z,17.27
2023-05-06T10:11:51.830Z,16.70
2023-05-06T10:14:55.220Z,17.52
2023-05-06T10:18:01.417Z,17.14
2023-05-06T10:21:11.013Z,17.33
2023-05-06T10:24:19.422Z,16.94
2023-05-06T10:27:26.296Z,17.25
2023-05-06T10:30:31.252Z,17.45
2023-05-06T10:33:35.240Z,17.88
2023-05-06T10:36:41.574Z,18.28
2023-05-06T10:39:45.509Z,17.91
2023-05-06T10:42:48.945Z,18.48
2023-05-06T10:46:06.956Z,18.26
2023-05-06T10:49:16.819Z,18.03
2023-05-06T10:52:24.295Z,19.07
2023-05-06T10:55:30.080Z,18.48
2023-05-06T10:58:37.608Z,18.50
2023-05-06T11:01:41.724Z,18.47
2023-05-06T11:04:52.044Z,18.07
2023-05-06T11:08:09.659Z,18.27
2023-05-06T11:11:51.647Z,18.66
2023-05-06T11:14:54.874Z,17.82
2023-05-06T11:17:58.212Z,18.07
2023-05-06T11:21:34.627Z,17.93
2023-05-06T11:24:42.564Z,17.78
2023-05-06T11:27:45.784Z,18.02
2023-05-06T11:30:56.218Z,18.04
2023-05-06T11:34:04.642Z,17.54
2023-05-06T11:37:09.555Z,18.08
2023-05-06T11:40:17.320Z,17.54
2023-05-06T11:43:20.646Z,17.73
2023-05-06T11:46:25.306Z,17.87
2023-05-06T11:49:28.677Z,17.86
2023-05-06T11:52:31.883Z,17.89
2023-05-06T11:55:36.648Z,18.37
2023-05-06T11:58:39.856Z,18.72
2023-05-06T12:01:44.398Z,19.05
2023-05-06T12:04:49.936Z,19.05
2023-05-06T12:07:53.659Z,19.09
2023-05-06T12:11:00.731Z,18.90
2023-05-06T12:14:06.664Z,18.63
2023-05-06T12:17:10.107Z,19.14
2023-05-06T12:20:13.953Z,19.70
2023-05-06T12:23:17.838Z,19.38
2023-05-06T12:26:22.386Z,19.08
2023-05-06T12:29:25.561Z,19.01
2023-05-06T12:32:29.080Z,19.58
2023-05-06T12:35:33.377Z,19.56
2023-05-06T12:38:36.644Z,19.77
2023-05-06T12:41:42.907Z,19.18
2023-05-06T12:44:46.038Z,19.48
2023-05-06T12:47:56.103Z,19.47
2023-05-06T12:50:59.382Z,19.11
2023-05-06T12:54:04.711Z,18.92
2023-05-06T12:57:09.260Z,18.82
2023-05-06T13:00:13.661Z,18.59
2023-05-06T13:03:16.998Z,18.68
2023-05-06T13:06:20.211Z,18.42
2023-05-06T13:09:23.660Z,18.65
2023-05-06T13:17:00.909Z,19.26
2023-05-06T13:20:32.459Z,19.28
2023-05-06T13:23:45.081Z,19.99
2023-05-06T13:27:38.133Z,19.89
2023-05-06T13:31:21.816Z,19.60
2023-05-06T13:34:32.226Z,19.51
2023-05-06T13:38:33.282Z,19.65
2023-05-06T13:47:27.126Z,20.32
2023-05-06T13:50:30.356Z,19.65
2023-05-06T13:53:33.489Z,20.22
2023-05-06T13:56:36.779Z,20.50
2023-05-06T13:59:39.912Z,20.69
2023-05-06T14:02:44.887Z,20.37
2023-05-06T14:05:48.414Z,20.50
2023-05-06T14:08:51.758Z,20.72
2023-05-06T14:11:57.917Z,20.29
2023-05-06T14:15:10.526Z,19.69
2023-05-06T14:19:18.908Z,20.00
2023-05-06T14:22:50.830Z,19.95
2023-05-06T14:26:21.336Z,20.49
2023-05-06T14:29:33.892Z,19.91
2023-05-06T14:36:49.270Z,19.63
2023-05-06T14:39:55.470Z,19.70
2023-05-06T14:43:04.778Z,19.62
2023-05-06T14:46:35.808Z,19.66
2023-05-06T14:49:38.966Z,19.69
2023-05-06T14:53:24.201Z,19.93
2023-05-06T15:02:10.088Z,19.82
2023-05-06T15:05:38.410Z,19.72
2023-05-06T15:09:27.242Z,19.85
2023-05-06T15:12:52.104Z,19.67
2023-05-06T15:16:02.141Z,19.92
2023-05-06T15:19:08.328Z,19.45
2023-05-06T15:26:09.803Z,20.01
2023-05-06T15:29:47.311Z,19.43
2023-05-06T15:36:13.402Z,20.01
2023-05-06T15:44:09.974Z,19.45
2023-05-06T15:47:30.617Z,19.81
2023-05-06T15:50:34.370Z,19.60
2023-05-06T15:53:40.872Z,19.88
2023-05-06T15:57:12.370Z,19.65
2023-05-06T16:00:18.802Z,19.63
2023-05-06T16:07:24.471Z,19.39
2023-05-06T16:10:58.507Z,19.44
2023-05-06T16:15:16.058Z,19.67
2023-05-06T16:22:12.571Z,19.63
2023-05-06T16:25:46.635Z,19.55
2023-05-06T16:29:04.949Z,19.28
2023-05-06T16:33:21.031Z,19.18
2023-05-06T16:40:02.476Z,19.38
2023-05-06T16:43:06.103Z,19.49
2023-05-06T16:46:09.287Z,19.27
2023-05-06T16:54:33.120Z,18.88
2023-05-06T16:57:43.658Z,19.03
2023-05-06T17:01:29.632Z,19.05
2023-05-06T17:22:05.986Z,18.68
2023-05-06T17:25:13.470Z,18.65
2023-05-06T17:28:27.966Z,18.62
2023-05-06T17:31:49.603Z,18.44
2023-05-06T17:35:02.186Z,18.29
2023-05-06T17:38:16.746Z,18.31
2023-05-06T17:41:40.617Z,18.22
2023-05-06T17:44:55.038Z,18.06
2023-05-06T18:03:26.327Z,17.14
2023-05-06T18:07:05.974Z,17.05
2023-05-06T18:10:22.130Z,16.92
2023-05-06T18:13:59.895Z,16.82
2023-05-06T18:18:09.934Z,16.72
2023-05-06T18:21:46.556Z,16.62
2023-05-06T18:33:23.865Z,16.08
2023-05-06T18:37:38.252Z,15.95
2023-05-06T18:45:22.900Z,15.51
2023-05-06T18:49:36.713Z,15.47
2023-05-06T18:53:08.684Z,15.36
2023-05-06T18:56:55.423Z,15.28
2023-05-06T19:07:39.526Z,14.94
2023-05-06T19:15:53.722Z,14.84
2023-05-06T19:23:17.911Z,14.79
2023-05-06T19:26:30.095Z,14.76
2023-05-06T19:29:47.364Z,15.05
2023-05-06T19:37:02.581Z,14.88
2023-05-06T19:40:57.748Z,15.15
2023-05-06T19:44:00.900Z,14.96
2023-05-06T19:47:10.136Z,14.93
2023-05-06T19:58:21.928Z,14.81
2023-05-06T20:01:46.472Z,14.94
2023-05-06T20:04:50.650Z,14.94
2023-05-06T20:08:22.625Z,14.86
2023-05-06T20:11:48.500Z,14.74
2023-05-06T20:14:54.909Z,14.81
2023-05-06T20:25:47.065Z,14.61
2023-05-06T20:28:54.193Z,14.74
2023-05-06T20:33:01.727Z,14.52
2023-05-06T20:41:13.779Z,14.28
2023-05-06T20:44:51.973Z,14.24
2023-05-06T20:56:36.255Z,13.76
2023-05-06T21:00:40.597Z,13.71
2023-05-06T21:04:12.924Z,13.81
2023-05-06T21:07:18.872Z,13.82
2023-05-06T21:10:22.009Z,13.59
2023-05-06T21:17:26.238Z,13.41
2023-05-06T21:20:59.432Z,13.37
2023-05-06T21:25:13.132Z,13.15
2023-05-06T21:29:30.518Z,13.11
2023-05-06T21:35:24.856Z,12.78
2023-05-06T21:38:38.595Z,12.87
2023-05-06T21:42:30.512Z,12.82
2023-05-06T21:45:36.865Z,12.62
2023-05-06T21:49:00.222Z,12.57
2023-05-06T21:52:03.478Z,12.60
2023-05-06T21:59:25.090Z,12.52
2023-05-06T22:02:41.951Z,12.54
2023-05-06T22:05:48.373Z,12.39
2023-05-06T22:09:10.143Z,12.32
2023-05-06T22:12:30.115Z,12.32
2023-05-06T22:15:57.817Z,12.08
2023-05-06T22:20:06.015Z,11.98
2023-05-06T22:23:10.301Z,11.99
2023-05-06T22:30:51.125Z,11.83
2023-05-06T22:34:09.278Z,11.76
2023-05-06T22:37:54.394Z,11.65
2023-05-06T22:41:53.028Z,11.53
2023-05-06T22:45:33.332Z,11.53
2023-05-06T22:48:39.287Z,11.44
2023-05-06T22:51:58.891Z,11.49
2023-05-06T22:55:48.507Z,11.38
2023-05-06T23:03:13.266Z,11.25
2023-05-06T23:07:04.598Z,11.23
2023-05-06T23:10:18.441Z,11.20
2023-05-06T23:13:24.810Z,11.29
2023-05-06T23:21:08.512Z,11.23
2023-05-06T23:24:25.107Z,11.20
2023-05-06T23:27:58.226Z,11.25
2023-05-06T23:32:07.151Z,11.16
2023-05-06T23:35:39.793Z,11.24
2023-05-06T23:44:30.224Z,11.27
2023-05-06T23:48:29.032Z,11.46
2023-05-06T23:56:02.475Z,11.15
2023-05-06T23:59:13.016Z,11.13
